Perry, Georgia
Current Conditions -  °F | °C
As of 7:15 AM on Tuesday 27 Jan 2015 (Local Time) from KPXE Reporting Station
Scattered Clouds Scattered Clouds  
Wind Chill: 31°   Ceiling: Unl
Heat Index: 35°   Visibility: 10mi
Dew Point: 32°   Wind: 5mph
Humidity: 90%   Direction: 260°W
Pressure: 29.93"   Gusts: NA
Location:  32.46°N, 83.73°W
Report Text: KPXE 271215Z AUTO 26004KT 10SM SCT055 02/00 A2993 RMK AO2 T00150000
Loading
Personal Weather Stations






























Interactive Weather Map New forecast layout! Learn more

10-Day Weather Forecast

Advertisements
Track Severe Weather on mobile